METAR Data
IDs: Format: Raw Decoded Include TAF

Data at: 0502 UTC 26 Sep 2018

KWYS 260450Z AUTO 00000KT 10SM CLR 03/M09 A3029 RMK AO2
KWYS 260430Z AUTO 00000KT 10SM CLR 05/M09 A3029 RMK AO2
KWYS 260415Z AUTO 24006KT 10SM CLR 06/M09 A3029 RMK AO2
KWYS 260355Z AUTO 21009KT 10SM CLR 05/M09 A3029 RMK AO2
KWYS 260335Z AUTO 23007KT 10SM CLR 04/M09 A3029 RMK AO2
KWYS 260315Z AUTO 21008KT 10SM CLR 04/M09 A3028 RMK AO2
KWYS 260250Z AUTO 21006KT 10SM CLR 05/M08 A3028 RMK AO2
KWYS 260235Z AUTO 20006KT 10SM CLR 05/M08 A3028 RMK AO2
KWYS 260215Z AUTO 19005KT 10SM CLR 06/M09 A3027 RMK AO2
KWYS 260155Z AUTO 21006KT 10SM CLR 06/M09 A3027 RMK AO2
KWYS 260130Z AUTO 23006KT 10SM CLR 08/M10 A3026 RMK AO2
KWYS 260110Z AUTO 23004KT 10SM CLR 10/M10 A3026 RMK AO2
KWYS 260055Z AUTO 25005KT 10SM CLR 11/M10 A3026 RMK AO2
KWYS 260035Z AUTO 25007KT 230V290 10SM CLR 12/M10 A3026 RMK AO2
KWYS 260015Z AUTO VRB05G11KT 10SM CLR 13/M10 A3025 RMK AO2
KWYS 252355Z AUTO 23009G14KT 10SM CLR 13/M10 A3025 RMK AO2
KWYS 252335Z AUTO 22011KT 10SM CLR 13/M10 A3024 RMK AO2
KWYS 252310Z AUTO 25009G15KT 10SM CLR 13/M10 A3024 RMK AO2
KWYS 252250Z AUTO VRB06G13KT 10SM CLR 14/M10 A3024 RMK AO2
KWYS 252235Z AUTO 23010G16KT 210V290 10SM CLR 14/M09 A3024 RMK AO2
KWYS 252215Z AUTO 31006G15KT 10SM CLR 14/M09 A3025 RMK AO2
KWYS 252155Z AUTO 27007KT 240V310 10SM CLR 13/M09 A3025 RMK AO2
KWYS 252135Z AUTO 23010G17KT 10SM CLR 13/M09 A3025 RMK AO2
KWYS 252115Z AUTO 19008G19KT 10SM CLR 13/M08 A3025 RMK AO2
KWYS 252050Z AUTO 17008G13KT 10SM CLR 13/M08 A3025 RMK AO2
KWYS 252030Z AUTO VRB06G11KT 10SM CLR 12/M11 A3026 RMK AO2
KWYS 252015Z AUTO 25010KT 220V280 10SM CLR 12/M09 A3026 RMK AO2
KWYS 251955Z AUTO 23007G13KT 10SM CLR 11/M08 A3026 RMK AO2
KWYS 251935Z AUTO 21005G14KT 10SM CLR 11/M07 A3027 RMK AO2
KWYS 251915Z AUTO VRB04KT 10SM CLR 10/M07 A3027 RMK AO2
KWYS 251855Z AUTO VRB04G12KT 10SM CLR 10/M07 A3028 RMK AO2
KWYS 251835Z AUTO 00000KT 10SM CLR 09/M07 A3029 RMK AO2
KWYS 251810Z AUTO VRB04KT 10SM CLR 08/M07 A3029 RMK AO2
KWYS 251755Z AUTO 04004KT 10SM CLR 08/M07 A3030 RMK AO2
KWYS 251735Z AUTO VRB03KT 10SM CLR 07/M07 A3031 RMK AO2
KWYS 251715Z AUTO 00000KT 10SM CLR 07/M07 A3031 RMK AO2
KWYS 251655Z AUTO VRB03KT 10SM CLR 06/M04 A3031 RMK AO2
KWYS 251635Z AUTO 00000KT 10SM CLR 05/M03 A3032 RMK AO2
KWYS 251610Z AUTO 00000KT 10SM CLR 04/M03 A3032 RMK AO2
KWYS 251555Z AUTO 00000KT 10SM CLR 02/M03 A3032 RMK AO2
KWYS 251535Z AUTO 00000KT 10SM CLR 02/M04 A3032 RMK AO2
KWYS 251515Z AUTO 00000KT 10SM CLR 00/M04 A3032 RMK AO2
KWYS 251455Z AUTO 00000KT 10SM CLR M01/M05 A3032 RMK AO2
KWYS 251430Z AUTO 00000KT 10SM CLR M03/M06 A3032 RMK AO2
KWYS 251410Z AUTO 00000KT 10SM CLR M05/M07 A3031 RMK AO2
KWYS 251355Z AUTO 00000KT 10SM CLR M06/M08 A3031 RMK AO2
KWYS 251335Z AUTO 00000KT 10SM CLR M07/M08 A3031 RMK AO2
KWYS 251315Z AUTO 00000KT 10SM CLR M07/M08 A3031 RMK AO2
KWYS 251255Z AUTO 00000KT 10SM CLR M07/M08 A3030 RMK AO2
KWYS 251230Z AUTO 00000KT 10SM CLR M06/M08 A3030 RMK AO2
KWYS 251210Z AUTO 00000KT 10SM CLR M05/M07 A3030 RMK AO2
KWYS 251155Z AUTO 00000KT 10SM CLR M05/M07 A3029 RMK AO2
KWYS 251135Z AUTO 00000KT 10SM CLR M05/M07 A3029 RMK AO2
KWYS 251115Z AUTO 00000KT 10SM CLR M05/M06 A3028 RMK AO2
KWYS 251055Z AUTO 00000KT 10SM CLR M04/M06 A3028 RMK AO2
KWYS 251035Z AUTO 00000KT 10SM CLR M04/M06 A3028 RMK AO2
KWYS 251010Z AUTO 00000KT 10SM BKN050 BKN065 M02/M05 A3027 RMK AO2
KWYS 250950Z AUTO 00000KT 10SM BKN055 OVC065 M02/M05 A3026 RMK AO2
KWYS 250935Z AUTO 00000KT 10SM SCT055 OVC065 M02/M05 A3027 RMK AO2
KWYS 250915Z AUTO 00000KT 10SM FEW050 OVC065 M03/M05 A3026 RMK AO2
KWYS 250855Z AUTO 00000KT 10SM SCT046 BKN055 BKN070 M03/M05 A3026 RMK AO2
KWYS 250835Z AUTO 19003KT 10SM FEW046 SCT060 M03/M05 A3026 RMK AO2
KWYS 250815Z AUTO VRB03KT 10SM BKN060 M03/M05 A3026 RMK AO2
KWYS 250750Z AUTO 20003KT 10SM FEW040 FEW046 M02/M05 A3025 RMK AO2
KWYS 250730Z AUTO 05003KT 10SM FEW041 BKN060 00/M03 A3025 RMK AO2
KWYS 250710Z AUTO 03006KT 10SM BKN060 OVC070 M00/M05 A3024 RMK AO2
KWYS 250655Z AUTO 03005KT 10SM FEW048 BKN060 OVC075 M00/M04 A3024 RMK AO2
KWYS 250635Z AUTO 00000KT 10SM FEW048 BKN055 OVC080 M00/M05 A3024 RMK AO2
KWYS 250615Z AUTO 00000KT 10SM BKN055 OVC080 M00/M05 A3024 RMK AO2
KWYS 250555Z AUTO 22005KT 10SM BKN050 OVC075 M01/M05 A3024 RMK AO2
KWYS 250535Z AUTO 24003KT 10SM SCT050 M01/M05 A3024 RMK AO2
KWYS 250510Z AUTO 00000KT 10SM SCT055 SCT065 M00/M05 A3023 RMK AO2
KWYS 250450Z AUTO 00000KT 10SM BKN050 BKN055 01/M05 A3022 RMK AO2
KWYS 250430Z AUTO 00000KT 10SM BKN050 OVC055 01/M05 A3022 RMK AO2
KWYS 250415Z AUTO 19003KT 10SM OVC050 00/M05 A3022 RMK AO2
KWYS 250355Z AUTO 00000KT 10SM OVC050 00/M06 A3021 RMK AO2
KWYS 250335Z AUTO 00000KT 10SM BKN055 BKN065 01/M05 A3020 RMK AO2
KWYS 250315Z AUTO 03004KT 10SM BKN060 02/M05 A3019 RMK AO2
KWYS 250250Z AUTO 00000KT 10SM FEW060 02/M05 A3018 RMK AO2
KWYS 250230Z AUTO 00000KT 10SM CLR 04/M05 A3017 RMK AO2
KWYS 250215Z AUTO 00000KT 10SM FEW060 04/M05 A3016 RMK AO2
KWYS 250155Z AUTO 00000KT 10SM BKN055 BKN070 06/M05 A3016 RMK AO2
KWYS 250135Z AUTO VRB04G11KT 10SM BKN055 OVC065 07/M05 A3015 RMK AO2
KWYS 250115Z AUTO 31004G10KT 10SM BKN060 BKN070 07/M06 A3014 RMK AO2
KWYS 250055Z AUTO VRB03KT 10SM FEW060 FEW075 07/M06 A3013 RMK AO2
KWYS 250030Z AUTO VRB05G11KT 10SM FEW080 07/M06 A3012 RMK AO2
KWYS 250010Z AUTO VRB06G12KT 10SM BKN075 BKN080 08/M05 A3011 RMK AO2
KWYS 242355Z AUTO 29007G15KT 250V320 10SM BKN070 OVC085 08/M06 A3011 RMK AO2
KWYS 242335Z AUTO 30007G14KT 270V330 10SM BKN070 OVC080 09/M05 A3011 RMK AO2
KWYS 242315Z AUTO 30005G11KT 10SM BKN070 OVC085 08/M05 A3010 RMK AO2
KWYS 242255Z AUTO VRB05G11KT 10SM FEW055 BKN075 OVC090 09/M05 A3010 RMK AO2
KWYS 242230Z AUTO 31007G20KT 10SM FEW065 FEW070 BKN090 09/M04 A3009 RMK AO2
KWYS 242215Z AUTO 29007G17KT 260V350 10SM FEW049 SCT060 BKN070 09/M04 A3008 RMK AO2
KWYS 242155Z AUTO 33011G20KT 10SM BKN055 BKN065 OVC075 08/M04 A3008 RMK AO2
KWYS 242135Z AUTO 34012G17KT 320V020 10SM OVC070 11/M06 A3006 RMK AO2
KWYS 242115Z AUTO 29008G17KT 10SM BKN070 BKN090 BKN110 11/M08 A3005 RMK AO2
KWYS 242055Z AUTO 29008G13KT 260V330 10SM FEW065 FEW080 SCT110 10/M10 A3004 RMK AO2
KWYS 242030Z AUTO 35007G19KT 300V060 10SM BKN060 BKN080 10/M07 A3004 RMK AO2
KWYS 242010Z AUTO 25008G14KT 10SM FEW070 FEW090 10/M06 A3005 RMK AO2
KWYS 241955Z AUTO VRB05G13KT 10SM FEW075 FEW090 FEW120 10/M05 A3005 RMK AO2
KWYS 241935Z AUTO VRB05G13KT 10SM SCT075 SCT085 BKN120 09/M05 A3006 RMK AO2
KWYS 241915Z AUTO 28007G12KT 250V310 10SM BKN050 BKN060 BKN080 09/M04 A3006 RMK AO2
KWYS 241855Z AUTO 36005G12KT 10SM BKN048 BKN060 BKN100 09/M04 A3006 RMK AO2
KWYS 241835Z AUTO 24007KT 200V270 10SM FEW037 SCT100 BKN120 08/M02 A3006 RMK AO2
KWYS 241810Z AUTO 21009KT 10SM SCT033 BKN040 OVC060 08/M01 A3006 RMK AO2
KWYS 241750Z AUTO 23009G14KT 10SM FEW032 BKN043 BKN050 09/M00 A3006 RMK AO2
KWYS 241735Z AUTO 23007G13KT 210V270 10SM FEW050 SCT060 07/M00 A3006 RMK AO2
KWYS 241715Z AUTO VRB04KT 10SM FEW017 FEW045 OVC060 07/01 A3006 RMK AO2